Time;durP1;ratioP1;P1;durP2;ratioP2;P2;SDS_P1;SDS_P2;PMS_P1;PMS_P2;Temp;Humidity;BMP_temperature;BMP_pressure;BME280_temperature;BME280_humidity;BME280_pressure;Samples;Min_cycle;Max_cycle;Signal;HPM_P1;HPM_P2
2022/08/21 00:00:27;;;;;;;2.63;2.43;;;;;;;-144.22;100.00;60274.75;7587582;23;20215;-66
2022/08/21 00:03:30;;;;;;;2.80;2.60;;;;;;;-144.22;100.00;60274.75;7616025;23;20211;-66
2022/08/21 00:06:33;;;;;;;2.60;2.40;;;;;;;-144.22;100.00;60274.75;7613131;23;20283;-67
2022/08/21 00:09:35;;;;;;;2.70;2.50;;;;;;;-144.22;100.00;60274.75;7615072;23;20223;-66
2022/08/21 00:12:38;;;;;;;3.13;2.93;;;;;;;-144.22;100.00;60274.75;7614186;23;20212;-66
2022/08/21 00:15:41;;;;;;;3.27;3.07;;;;;;;-144.22;100.00;60274.75;7615428;23;20232;-66
2022/08/21 00:18:44;;;;;;;3.13;2.93;;;;;;;-144.22;100.00;60274.75;7613070;23;20219;-66
2022/08/21 00:21:46;;;;;;;3.13;2.83;;;;;;;-144.22;100.00;60274.75;7587296;23;20678;-67
2022/08/21 00:24:48;;;;;;;2.90;2.70;;;;;;;-144.22;100.00;60274.75;7614259;23;20208;-66
2022/08/21 00:27:51;;;;;;;3.33;3.03;;;;;;;-144.22;100.00;60274.75;7587283;23;20266;-66
2022/08/21 00:30:53;;;;;;;3.50;3.20;;;;;;;-144.22;100.00;60274.75;7613287;23;20741;-66
2022/08/21 00:33:55;;;;;;;3.67;3.37;;;;;;;-144.22;100.00;60274.75;7614082;23;20287;-67
2022/08/21 00:37:01;;;;;;;3.03;2.80;;;;;;;-144.22;100.00;60274.75;7613598;23;20209;-67
2022/08/21 00:40:06;;;;;;;3.53;3.23;;;;;;;-144.22;100.00;60274.75;7613121;23;20564;-66
2022/08/21 00:43:11;;;;;;;3.70;3.40;;;;;;;-144.22;100.00;60274.75;7613937;23;20252;-66
2022/08/21 00:46:13;;;;;;;3.63;3.33;;;;;;;-144.22;100.00;60274.75;7613558;23;20236;-66
2022/08/21 00:49:17;;;;;;;4.53;3.03;;;;;;;-144.22;100.00;60274.75;7613324;23;20212;-66
2022/08/21 00:52:21;;;;;;;3.00;2.80;;;;;;;-144.22;100.00;60274.75;7614832;23;20263;-67
2022/08/21 00:55:24;;;;;;;4.00;3.70;;;;;;;-144.22;100.00;60274.75;7587733;23;20292;-66
2022/08/21 00:58:30;;;;;;;3.57;3.27;;;;;;;-144.22;100.00;60274.75;7613396;23;20221;-67
2022/08/21 01:01:45;;;;;;;3.63;3.33;;;;;;;-144.22;100.00;60274.75;7614141;23;20212;-67
2022/08/21 01:04:47;;;;;;;3.73;3.43;;;;;;;-144.22;100.00;60274.75;7612897;23;20275;-66
2022/08/21 01:07:49;;;;;;;3.53;2.90;;;;;;;-144.22;100.00;60274.75;7616698;23;20216;-66
2022/08/21 01:10:53;;;;;;;2.93;2.73;;;;;;;-144.22;100.00;60274.75;7617533;23;20303;-66
2022/08/21 01:13:59;;;;;;;3.77;3.47;;;;;;;-144.22;100.00;60274.75;7617869;23;20216;-66
2022/08/21 01:17:03;;;;;;;3.57;3.23;;;;;;;-144.22;100.00;60274.75;7616601;23;20680;-66
2022/08/21 01:20:09;;;;;;;4.37;3.70;;;;;;;-144.22;100.00;60274.75;7615160;23;20315;-66
2022/08/21 01:23:12;;;;;;;4.67;4.17;;;;;;;-144.22;100.00;60274.75;7616210;23;20212;-66
2022/08/21 01:26:16;;;;;;;4.07;3.77;;;;;;;-144.22;100.00;60274.75;7615706;23;20212;-66
2022/08/21 01:29:40;;;;;;;4.03;3.73;;;;;;;-144.22;100.00;60274.75;7590041;23;20300;-67
2022/08/21 01:32:43;;;;;;;4.30;3.90;;;;;;;-144.22;100.00;60274.75;7616094;23;20209;-66
2022/08/21 01:35:45;;;;;;;3.77;3.47;;;;;;;-144.22;100.00;60274.75;7615858;23;20546;-67
2022/08/21 01:38:47;;;;;;;3.57;3.27;;;;;;;-144.22;100.00;60274.75;7617166;23;20263;-66
2022/08/21 01:41:49;;;;;;;4.00;3.70;;;;;;;-144.22;100.00;60274.75;7615629;23;20268;-66
2022/08/21 01:44:52;;;;;;;4.40;4.00;;;;;;;-144.22;100.00;60274.75;7616074;23;20672;-67
2022/08/21 01:47:56;;;;;;;3.97;3.57;;;;;;;-144.22;100.00;60274.75;7616848;23;20213;-66
2022/08/21 01:50:59;;;;;;;3.87;3.57;;;;;;;-144.22;100.00;60274.75;7615219;23;20263;-67
2022/08/21 01:54:01;;;;;;;3.97;3.57;;;;;;;-144.22;100.00;60274.75;7615667;23;20715;-63
2022/08/21 01:57:04;;;;;;;3.27;3.03;;;;;;;-144.22;100.00;60274.75;7616463;23;20227;-66
2022/08/21 02:00:11;;;;;;;4.37;3.97;;;;;;;-144.22;100.00;60274.75;7615318;23;20692;-66
2022/08/21 02:03:13;;;;;;;3.90;3.60;;;;;;;-144.22;100.00;60274.75;7617146;23;20616;-67
2022/08/21 02:06:27;;;;;;;3.70;3.33;;;;;;;-144.22;100.00;60274.75;7615443;23;20213;-67
2022/08/21 02:09:29;;;;;;;3.07;2.87;;;;;;;-144.22;100.00;60274.75;7616473;23;20283;-66
2022/08/21 02:12:31;;;;;;;3.00;2.80;;;;;;;-144.22;100.00;60274.75;7613647;23;20541;-66
2022/08/21 02:15:33;;;;;;;3.00;2.80;;;;;;;-144.22;100.00;60274.75;7589507;23;20223;-66
2022/08/21 02:18:36;;;;;;;3.50;3.20;;;;;;;-144.22;100.00;60274.75;7615336;23;20612;-66
2022/08/21 02:21:38;;;;;;;3.10;2.90;;;;;;;-144.22;100.00;60274.75;7589950;23;20212;-66
2022/08/21 02:24:40;;;;;;;3.23;2.97;;;;;;;-144.22;100.00;60274.75;7615578;23;20212;-67
2022/08/21 02:27:56;;;;;;;3.50;3.20;;;;;;;-144.22;100.00;60274.75;7614678;23;20581;-67
2022/08/21 02:30:58;;;;;;;3.53;3.23;;;;;;;-144.22;100.00;60274.75;7616469;23;20299;-66
2022/08/21 02:34:01;;;;;;;5.13;3.73;;;;;;;-144.22;100.00;60274.75;7615732;23;20271;-67
2022/08/21 02:37:03;;;;;;;3.73;3.37;;;;;;;-144.22;100.00;60274.75;7615291;23;20215;-67
2022/08/21 02:40:05;;;;;;;3.37;3.00;;;;;;;-144.22;100.00;60274.75;7614719;23;20212;-67
2022/08/21 02:43:08;;;;;;;3.30;3.00;;;;;;;-144.22;100.00;60274.75;7614037;23;20209;-67
2022/08/21 02:46:15;;;;;;;3.40;3.20;;;;;;;-144.22;100.00;60274.75;7616323;23;20217;-66
2022/08/21 02:49:17;;;;;;;3.73;3.43;;;;;;;-144.22;100.00;60274.75;7615131;23;20208;-67
2022/08/21 02:52:21;;;;;;;4.87;3.30;;;;;;;-144.22;100.00;60274.75;7615664;23;20216;-67
2022/08/21 02:55:26;;;;;;;3.60;3.30;;;;;;;-144.22;100.00;60274.75;7614328;23;20232;-66
2022/08/21 02:58:32;;;;;;;3.90;3.60;;;;;;;-144.22;100.00;60274.75;7615462;23;20248;-66
2022/08/21 03:01:34;;;;;;;3.67;3.37;;;;;;;-144.22;100.00;60274.75;7614978;23;20212;-67
2022/08/21 03:04:51;;;;;;;5.27;4.10;;;;;;;-144.22;100.00;60274.75;7614047;23;20212;-67
2022/08/21 03:07:53;;;;;;;4.10;3.80;;;;;;;-144.22;100.00;60274.75;7614814;23;20232;-67
2022/08/21 03:10:56;;;;;;;4.13;3.83;;;;;;;-144.22;100.00;60274.75;7615144;23;20239;-67
2022/08/21 03:13:58;;;;;;;3.90;3.60;;;;;;;-144.22;100.00;60274.75;7614833;23;20676;-67
2022/08/21 03:17:00;;;;;;;4.40;4.00;;;;;;;-144.22;100.00;60274.75;7613648;23;20216;-67
2022/08/21 03:20:04;;;;;;;4.27;3.90;;;;;;;-144.22;100.00;60274.75;7614213;23;20227;-65
2022/08/21 03:23:07;;;;;;;4.77;3.60;;;;;;;-144.22;100.00;60274.75;7615304;23;20205;-67
2022/08/21 03:26:15;;;;;;;3.90;3.50;;;;;;;-144.22;100.00;60274.75;7613787;23;20209;-67
2022/08/21 03:29:17;;;;;;;3.53;3.23;;;;;;;-144.22;100.00;60274.75;7615804;23;20590;-66
2022/08/21 03:32:19;;;;;;;3.10;2.83;;;;;;;-144.22;100.00;60274.75;7612819;23;20216;-66
2022/08/21 03:35:21;;;;;;;3.00;2.80;;;;;;;-144.22;100.00;60274.75;7614928;23;20209;-67
2022/08/21 03:38:23;;;;;;;2.43;2.23;;;;;;;-144.22;100.00;60274.75;7613858;23;20702;-67
2022/08/21 03:41:27;;;;;;;2.67;2.47;;;;;;;-144.22;100.00;60274.75;7615115;23;20734;-67
2022/08/21 03:44:30;;;;;;;2.30;2.20;;;;;;;-144.22;100.00;60274.75;7614961;23;20212;-67
2022/08/21 03:47:32;;;;;;;2.60;2.10;;;;;;;-144.22;100.00;60274.75;7613199;23;20672;-67
2022/08/21 03:50:39;;;;;;;2.23;2.10;;;;;;;-144.22;100.00;60274.75;7614552;23;20738;-66
2022/08/21 03:53:42;;;;;;;2.17;2.00;;;;;;;-144.22;100.00;60274.75;7613069;23;20213;-67
2022/08/21 03:56:44;;;;;;;2.30;2.10;;;;;;;-144.22;100.00;60274.75;7613116;23;20679;-67
2022/08/21 03:59:46;;;;;;;1.60;1.50;;;;;;;-144.22;100.00;60274.75;7614222;23;20695;-67
2022/08/21 04:02:48;;;;;;;3.17;1.87;;;;;;;-144.22;100.00;60274.75;7612691;23;20730;-67
2022/08/21 04:05:51;;;;;;;1.60;1.50;;;;;;;-144.22;100.00;60274.75;7614378;23;20295;-66
2022/08/21 04:08:54;;;;;;;1.77;1.67;;;;;;;-144.22;100.00;60274.75;7615255;23;20212;-66
2022/08/21 04:11:58;;;;;;;1.90;1.73;;;;;;;-144.22;100.00;60274.75;7615757;23;20267;-67
2022/08/21 04:15:01;;;;;;;1.70;1.60;;;;;;;-144.22;100.00;60274.75;7589310;23;20614;-67
2022/08/21 04:18:04;;;;;;;1.27;1.17;;;;;;;-144.22;100.00;60274.75;7617531;23;20668;-67
2022/08/21 04:21:09;;;;;;;1.40;1.30;;;;;;;-144.22;100.00;60274.75;7614898;23;20215;-66
2022/08/21 04:24:11;;;;;;;1.50;1.40;;;;;;;-144.22;100.00;60274.75;7613879;23;20181;-67
2022/08/21 04:27:14;;;;;;;1.80;1.70;;;;;;;-144.22;100.00;60274.75;7614163;23;20227;-67
2022/08/21 04:30:16;;;;;;;1.50;1.40;;;;;;;-144.22;100.00;60274.75;7613911;23;20191;-66
2022/08/21 04:33:19;;;;;;;1.40;1.30;;;;;;;-144.22;100.00;60274.75;7614998;23;20172;-66
2022/08/21 04:36:22;;;;;;;1.57;1.47;;;;;;;-144.22;100.00;60274.75;7613833;23;20669;-66
2022/08/21 04:39:26;;;;;;;1.40;1.30;;;;;;;-144.22;100.00;60274.75;7613357;23;20216;-67
2022/08/21 04:42:30;;;;;;;1.17;1.10;;;;;;;-144.22;100.00;60274.75;7586779;23;20209;-66
2022/08/21 04:45:39;;;;;;;1.17;1.10;;;;;;;-144.22;100.00;60274.75;7586934;23;20227;-64
2022/08/21 04:48:41;;;;;;;1.30;1.00;;;;;;;-144.22;100.00;60274.75;7613639;23;20678;-64
2022/08/21 04:51:44;;;;;;;1.50;1.40;;;;;;;-144.22;100.00;60274.75;7613813;23;20264;-66
2022/08/21 04:54:48;;;;;;;1.40;1.20;;;;;;;-144.22;100.00;60274.75;7613876;23;20263;-66
2022/08/21 04:57:56;;;;;;;1.20;1.10;;;;;;;-144.22;100.00;60274.75;7613606;23;20209;-68
2022/08/21 05:01:01;;;;;;;1.23;1.10;;;;;;;-144.22;100.00;60274.75;7614543;23;20291;-64
2022/08/21 05:04:05;;;;;;;1.60;1.50;;;;;;;-144.22;100.00;60274.75;7613302;23;20220;-66
2022/08/21 05:07:12;;;;;;;1.47;1.37;;;;;;;-144.22;100.00;60274.75;7614416;23;20259;-66
2022/08/21 05:10:15;;;;;;;1.77;1.67;;;;;;;-144.22;100.00;60274.75;7587636;23;20219;-64
2022/08/21 05:13:19;;;;;;;1.73;1.60;;;;;;;-144.22;100.00;60274.75;7588892;23;20235;-66
2022/08/21 05:16:21;;;;;;;1.73;1.60;;;;;;;-144.22;100.00;60274.75;7613167;23;20339;-64
2022/08/21 05:19:38;;;;;;;2.20;2.00;;;;;;;-144.22;100.00;60274.75;7617413;23;20216;-65
2022/08/21 05:22:41;;;;;;;1.83;1.73;;;;;;;-144.22;100.00;60274.75;7619896;23;20565;-65
2022/08/21 05:25:43;;;;;;;2.43;1.70;;;;;;;-144.22;100.00;60274.75;7612567;23;20227;-67
2022/08/21 05:28:46;;;;;;;2.27;1.77;;;;;;;-144.22;100.00;60274.75;7612967;23;20209;-65
2022/08/21 05:31:48;;;;;;;2.90;2.37;;;;;;;-144.22;100.00;60274.75;7611889;23;20218;-65
2022/08/21 05:34:50;;;;;;;2.13;1.93;;;;;;;-144.22;100.00;60274.75;7612785;23;20216;-65
2022/08/21 05:37:53;;;;;;;1.73;1.63;;;;;;;-144.22;100.00;60274.75;7613762;23;20219;-65
2022/08/21 05:40:55;;;;;;;1.83;1.67;;;;;;;-144.22;100.00;60274.75;7613604;23;20216;-65
2022/08/21 05:43:57;;;;;;;1.67;1.57;;;;;;;-144.22;100.00;60274.75;7612957;23;20643;-67
2022/08/21 05:47:17;;;;;;;1.77;1.67;;;;;;;-144.22;100.00;60274.75;7584613;23;20291;-65
2022/08/21 05:50:19;;;;;;;2.00;1.90;;;;;;;-144.22;100.00;60274.75;7612285;23;20213;-64
2022/08/21 05:53:23;;;;;;;2.20;2.00;;;;;;;-144.22;100.00;60274.75;7614137;23;20212;-64
2022/08/21 05:56:25;;;;;;;2.30;2.10;;;;;;;-144.22;100.00;60274.75;7613493;23;20238;-65
2022/08/21 05:59:28;;;;;;;1.80;1.70;;;;;;;-144.22;100.00;60274.75;7615638;23;20227;-64
2022/08/21 06:02:30;;;;;;;1.90;1.80;;;;;;;-144.22;100.00;60274.75;7614264;23;20212;-67
2022/08/21 06:05:33;;;;;;;2.37;2.17;;;;;;;-144.22;100.00;60274.75;7615238;23;20296;-64
2022/08/21 06:08:38;;;;;;;2.07;1.97;;;;;;;-144.22;100.00;60274.75;7615365;23;20209;-65
2022/08/21 06:11:40;;;;;;;1.90;1.80;;;;;;;-144.22;100.00;60274.75;7614868;23;20238;-68
2022/08/21 06:14:42;;;;;;;1.60;1.50;;;;;;;-144.22;100.00;60274.75;7614827;23;20224;-65
2022/08/21 06:17:44;;;;;;;1.73;1.63;;;;;;;-144.22;100.00;60274.75;7613959;23;20212;-64
2022/08/21 06:20:46;;;;;;;1.70;1.60;;;;;;;-144.22;100.00;60274.75;7615002;23;20641;-65
2022/08/21 06:23:48;;;;;;;2.17;2.03;;;;;;;-144.22;100.00;60274.75;7614544;23;20738;-64
2022/08/21 06:26:50;;;;;;;1.83;1.73;;;;;;;-144.22;100.00;60274.75;7614316;23;20208;-64
2022/08/21 06:29:53;;;;;;;1.90;1.80;;;;;;;-144.22;100.00;60274.75;7614629;23;20683;-65
2022/08/21 06:32:55;;;;;;;1.50;1.40;;;;;;;-144.22;100.00;60274.75;7613675;23;20699;-64
2022/08/21 06:35:57;;;;;;;2.00;1.90;;;;;;;-144.22;100.00;60274.75;7615580;23;20323;-64
2022/08/21 06:38:59;;;;;;;2.20;2.00;;;;;;;-144.22;100.00;60274.75;7615386;23;20591;-64
2022/08/21 06:42:02;;;;;;;2.03;1.93;;;;;;;-144.22;100.00;60274.75;7612683;23;20184;-65
2022/08/21 06:45:05;;;;;;;2.20;2.10;;;;;;;-144.22;100.00;60274.75;7615780;23;20184;-64
2022/08/21 06:48:07;;;;;;;4.33;2.40;;;;;;;-144.22;100.00;60274.75;7613348;23;20189;-64
2022/08/21 06:51:09;;;;;;;2.13;2.03;;;;;;;-144.22;100.00;60274.75;7614980;23;20177;-64
2022/08/21 06:54:11;;;;;;;2.40;2.20;;;;;;;-144.22;100.00;60274.75;7589316;23;20559;-64
2022/08/21 06:57:13;;;;;;;2.63;2.37;;;;;;;-144.22;100.00;60274.75;7614405;23;20607;-65
2022/08/21 07:00:16;;;;;;;2.37;2.17;;;;;;;-144.22;100.00;60274.75;7613158;23;20267;-65
2022/08/21 07:03:27;;;;;;;2.37;2.27;;;;;;;-144.22;100.00;60274.75;7614630;23;20204;-65
2022/08/21 07:06:30;;;;;;;2.50;2.33;;;;;;;-144.22;100.00;60274.75;7621923;23;20204;-64
2022/08/21 07:09:35;;;;;;;3.80;2.10;;;;;;;-144.22;100.00;60274.75;7613868;23;20665;-64
2022/08/21 07:12:37;;;;;;;2.67;2.47;;;;;;;-144.22;100.00;60274.75;7613831;23;20642;-64
2022/08/21 07:15:39;;;;;;;2.97;2.77;;;;;;;-144.22;100.00;60274.75;7613547;23;20236;-64
2022/08/21 07:18:41;;;;;;;2.80;2.60;;;;;;;-144.22;100.00;60274.75;7613292;23;20543;-68
2022/08/21 07:21:43;;;;;;;2.67;2.47;;;;;;;-144.22;100.00;60274.75;7588306;23;20551;-64
2022/08/21 07:24:46;;;;;;;2.63;2.43;;;;;;;-144.22;100.00;60274.75;7614921;23;20209;-64
2022/08/21 07:27:48;;;;;;;2.40;2.20;;;;;;;-144.22;100.00;60274.75;7589100;23;20215;-64
2022/08/21 07:30:52;;;;;;;2.23;2.10;;;;;;;-144.22;100.00;60274.75;7613809;23;20243;-64
2022/08/21 07:33:55;;;;;;;2.67;2.47;;;;;;;-144.22;100.00;60274.75;7613536;23;20625;-65
2022/08/21 07:36:58;;;;;;;1.90;1.80;;;;;;;-144.22;100.00;60274.75;7613757;23;20212;-64
2022/08/21 07:40:07;;;;;;;2.20;2.10;;;;;;;-144.22;100.00;60274.75;7613570;23;20217;-67
2022/08/21 07:43:10;;;;;;;2.23;2.07;;;;;;;-144.22;100.00;60274.75;7613588;23;20223;-64
2022/08/21 07:46:13;;;;;;;1.97;1.87;;;;;;;-144.22;100.00;60274.75;7613738;23;20216;-64
2022/08/21 07:49:15;;;;;;;2.03;1.60;;;;;;;-144.22;100.00;60274.75;7614728;23;20696;-64
2022/08/21 07:52:17;;;;;;;2.83;2.00;;;;;;;-144.22;100.00;60274.75;7613182;23;20220;-64
2022/08/21 07:55:21;;;;;;;2.27;2.07;;;;;;;-144.22;100.00;60274.75;7614017;23;20558;-67
2022/08/21 07:58:23;;;;;;;2.10;1.97;;;;;;;-144.22;100.00;60274.75;7612564;23;20805;-65
2022/08/21 08:01:25;;;;;;;2.00;1.90;;;;;;;-144.22;100.00;60274.75;7613144;23;20228;-65
2022/08/21 08:04:28;;;;;;;2.20;2.00;;;;;;;-144.22;100.00;60274.75;7613638;23;20208;-65
2022/08/21 08:07:30;;;;;;;2.47;2.10;;;;;;;-144.22;100.00;60274.75;7613216;23;20216;-66
2022/08/21 08:10:32;;;;;;;2.50;2.30;;;;;;;-144.22;100.00;60274.75;7612187;23;20291;-64
2022/08/21 08:13:43;;;;;;;2.70;2.10;;;;;;;-144.22;100.00;60274.75;7613845;23;20263;-65
2022/08/21 08:16:45;;;;;;;2.17;2.00;;;;;;;-144.22;100.00;60274.75;7613672;23;20600;-67
2022/08/21 08:19:48;;;;;;;1.80;1.70;;;;;;;-144.22;100.00;60274.75;7612811;23;20216;-65
2022/08/21 08:22:50;;;;;;;2.83;1.97;;;;;;;-144.22;100.00;60274.75;7612272;23;20426;-67
2022/08/21 08:25:53;;;;;;;1.93;1.83;;;;;;;-144.22;100.00;60274.75;7613830;23;20219;-66
2022/08/21 08:28:55;;;;;;;2.10;2.00;;;;;;;-144.22;100.00;60274.75;7611941;23;20208;-65
2022/08/21 08:31:57;;;;;;;2.70;2.50;;;;;;;-144.22;100.00;60274.75;7614468;23;20227;-65
2022/08/21 08:35:00;;;;;;;2.50;2.30;;;;;;;-144.22;100.00;60274.75;7613480;23;20548;-66
2022/08/21 08:38:02;;;;;;;2.90;2.67;;;;;;;-144.22;100.00;60274.75;7612288;23;20220;-66
2022/08/21 08:41:18;;;;;;;2.10;2.00;;;;;;;-144.22;100.00;60274.75;7613328;23;20223;-64
2022/08/21 08:44:21;;;;;;;2.77;2.57;;;;;;;-144.22;100.00;60274.75;7612759;23;20685;-64
2022/08/21 08:47:25;;;;;;;2.37;2.17;;;;;;;-144.22;100.00;60274.75;7611919;23;20219;-65
2022/08/21 08:50:54;;;;;;;2.20;2.07;;;;;;;-144.22;100.00;60274.75;7619542;23;20224;-65
2022/08/21 08:54:03;;;;;;;2.17;1.97;;;;;;;-144.22;100.00;60274.75;7588047;23;20217;-64
2022/08/21 08:57:10;;;;;;;2.50;2.30;;;;;;;-144.22;100.00;60274.75;7612774;23;20205;-64
2022/08/21 09:00:17;;;;;;;2.37;2.23;;;;;;;-144.22;100.00;60274.75;7584987;23;20212;-65
2022/08/21 09:03:23;;;;;;;2.90;2.70;;;;;;;-144.22;100.00;60274.75;7613143;23;20181;-64
2022/08/21 09:06:40;;;;;;;2.60;2.40;;;;;;;-144.22;100.00;60274.75;7610335;23;20695;-65
2022/08/21 09:09:48;;;;;;;2.27;2.17;;;;;;;-144.22;100.00;60274.75;7613265;23;20248;-65
2022/08/21 09:13:03;;;;;;;2.80;2.30;;;;;;;-144.22;100.00;60274.75;7611021;23;20216;-65
2022/08/21 09:16:31;;;;;;;1.87;1.77;;;;;;;-144.22;100.00;60274.75;7612337;23;20452;-65
2022/08/21 09:19:47;;;;;;;1.97;1.87;;;;;;;-144.22;100.00;60274.75;7606713;23;20212;-65
2022/08/21 09:23:04;;;;;;;1.70;1.60;;;;;;;-144.22;100.00;60274.75;7612180;23;20213;-64
2022/08/21 09:26:16;;;;;;;1.60;1.50;;;;;;;-144.22;100.00;60274.75;7609225;23;20552;-65
2022/08/21 09:29:23;;;;;;;2.17;2.07;;;;;;;-144.22;100.00;60274.75;7590294;23;20288;-65
2022/08/21 09:32:31;;;;;;;1.97;1.87;;;;;;;-144.22;100.00;60274.75;7589624;23;20294;-64
2022/08/21 09:35:58;;;;;;;1.50;1.40;;;;;;;-144.22;100.00;60274.75;7615570;23;20213;-66
2022/08/21 09:39:00;;;;;;;1.50;1.40;;;;;;;-144.22;100.00;60274.75;7614882;23;20640;-67
2022/08/21 09:42:05;;;;;;;1.37;1.27;;;;;;;-144.22;100.00;60274.75;7615855;23;20727;-65
2022/08/21 09:45:16;;;;;;;1.40;1.30;;;;;;;-144.22;100.00;60274.75;7614693;23;20184;-64
2022/08/21 09:48:21;;;;;;;1.60;1.50;;;;;;;-144.22;100.00;60274.75;7614533;23;20605;-64
2022/08/21 09:51:29;;;;;;;1.47;1.37;;;;;;;-144.22;100.00;60274.75;7615848;23;20295;-65
2022/08/21 09:54:37;;;;;;;1.43;1.33;;;;;;;-144.22;100.00;60274.75;7615997;23;20552;-65
2022/08/21 09:57:39;;;;;;;1.30;1.20;;;;;;;-144.22;100.00;60274.75;7614979;23;20209;-65
2022/08/21 10:00:58;;;;;;;1.13;1.07;;;;;;;-144.22;100.00;60274.75;7590636;23;20216;-64
2022/08/21 10:04:10;;;;;;;1.30;1.20;;;;;;;-144.22;100.00;60274.75;7614893;23;20219;-65
2022/08/21 10:07:14;;;;;;;1.03;1.03;;;;;;;-144.22;100.00;60274.75;7615135;23;20215;-64
2022/08/21 10:10:22;;;;;;;1.40;1.30;;;;;;;-144.22;100.00;60274.75;7613846;23;20212;-64
2022/08/21 10:13:32;;;;;;;1.50;1.40;;;;;;;-144.22;100.00;60274.75;7615638;23;20219;-64
2022/08/21 10:17:01;;;;;;;1.40;1.30;;;;;;;-144.22;100.00;60274.75;7615764;23;20235;-64
2022/08/21 10:20:10;;;;;;;1.20;1.10;;;;;;;-144.22;100.00;60274.75;7615491;23;20567;-64
2022/08/21 10:23:55;;;;;;;1.70;1.43;;;;;;;-144.22;100.00;60274.75;7619098;23;20648;-64
2022/08/21 10:27:10;;;;;;;1.30;1.20;;;;;;;-144.22;100.00;60274.75;7586139;23;20767;-64
2022/08/21 10:30:21;;;;;;;1.10;0.90;;;;;;;-144.22;100.00;60274.75;7613938;23;20228;-64
2022/08/21 10:33:33;;;;;;;1.20;1.20;;;;;;;-144.22;100.00;60274.75;7615270;23;20540;-64
2022/08/21 10:36:52;;;;;;;1.43;1.33;;;;;;;-144.22;100.00;60274.75;7614437;23;20234;-64
2022/08/21 10:40:07;;;;;;;1.40;1.30;;;;;;;-144.22;100.00;60274.75;7613355;23;20597;-64
2022/08/21 10:43:38;;;;;;;1.30;1.20;;;;;;;-144.22;100.00;60274.75;7587514;23;20213;-64
2022/08/21 10:46:49;;;;;;;2.07;1.40;;;;;;;-144.22;100.00;60274.75;7614919;23;20541;-64
2022/08/21 10:50:07;;;;;;;1.10;1.10;;;;;;;-144.22;100.00;60274.75;7614136;23;20280;-66
2022/08/21 10:53:33;;;;;;;1.40;1.30;;;;;;;-144.22;100.00;60274.75;7613988;23;20260;-67
2022/08/21 10:56:40;;;;;;;1.50;1.40;;;;;;;-144.22;100.00;60274.75;7614040;23;20286;-64
2022/08/21 10:59:57;;;;;;;1.60;1.50;;;;;;;-144.22;100.00;60274.75;7588426;23;20236;-64
2022/08/21 11:03:23;;;;;;;1.93;1.33;;;;;;;-144.22;100.00;60274.75;7612972;23;20241;-64
2022/08/21 11:06:30;;;;;;;3.10;1.30;;;;;;;-144.22;100.00;60274.75;7613782;23;20224;-64
2022/08/21 11:09:32;;;;;;;2.20;1.33;;;;;;;-144.22;100.00;60274.75;7615059;23;20661;-64
2022/08/21 11:12:44;;;;;;;1.50;1.40;;;;;;;-144.22;100.00;60274.75;7613675;23;20231;-66
2022/08/21 11:16:00;;;;;;;1.60;1.50;;;;;;;-144.22;100.00;60274.75;7614441;23;20240;-64
2022/08/21 11:19:13;;;;;;;1.30;1.20;;;;;;;-144.22;100.00;60274.75;7612898;23;20588;-67
2022/08/21 11:22:18;;;;;;;1.10;1.10;;;;;;;-144.22;100.00;60274.75;7614246;23;20743;-61
2022/08/21 11:25:31;;;;;;;2.63;1.17;;;;;;;-144.22;100.00;60274.75;7615199;23;20216;-60
2022/08/21 11:28:47;;;;;;;1.20;1.10;;;;;;;-144.22;100.00;60274.75;7613839;23;20240;-64
2022/08/21 11:32:04;;;;;;;0.97;0.97;;;;;;;-144.22;100.00;60274.75;7614670;23;20240;-62
2022/08/21 11:35:29;;;;;;;0.83;0.83;;;;;;;-144.22;100.00;60274.75;7613640;23;20536;-66
2022/08/21 11:38:40;;;;;;;0.90;0.90;;;;;;;-144.22;100.00;60274.75;7613436;23;20645;-62
2022/08/21 11:42:09;;;;;;;0.67;0.67;;;;;;;-144.22;100.00;60274.75;7613444;23;20223;-62
2022/08/21 11:45:37;;;;;;;0.70;0.70;;;;;;;-144.22;100.00;60274.75;7615598;23;20283;-64
2022/08/21 11:49:16;;;;;;;0.90;0.90;;;;;;;-144.22;100.00;60274.75;7537151;23;20213;-63
2022/08/21 11:52:25;;;;;;;1.70;0.70;;;;;;;-144.22;100.00;60274.75;7538075;23;20213;-62
2022/08/21 11:55:56;;;;;;;0.63;0.63;;;;;;;-144.22;100.00;60274.75;7537948;23;20214;-62
2022/08/21 11:59:06;;;;;;;0.83;0.70;;;;;;;-144.22;100.00;60274.75;7539006;23;20273;-62
2022/08/21 12:02:14;;;;;;;1.03;0.70;;;;;;;-144.22;100.00;60274.75;7538093;23;20600;-67
2022/08/21 12:05:29;;;;;;;0.93;0.90;;;;;;;-144.22;100.00;60274.75;7538055;23;20225;-62
2022/08/21 12:08:36;;;;;;;0.70;0.70;;;;;;;-144.22;100.00;60274.75;7537521;23;20218;-62
2022/08/21 12:11:51;;;;;;;0.77;0.77;;;;;;;-144.22;100.00;60274.75;7536846;23;20217;-67
2022/08/21 12:15:12;;;;;;;1.37;0.80;;;;;;;-144.22;100.00;60274.75;7537145;23;20565;-63
2022/08/21 12:18:31;;;;;;;1.00;0.70;;;;;;;-144.22;100.00;60274.75;7537977;23;20301;-64
2022/08/21 12:22:05;;;;;;;0.93;0.83;;;;;;;-144.22;100.00;60274.75;7538353;23;20261;-64
2022/08/21 12:25:15;;;;;;;0.90;0.70;;;;;;;-144.22;100.00;60274.75;7572208;23;20212;-64
2022/08/21 12:28:23;;;;;;;0.77;0.77;;;;;;;-144.22;100.00;60274.75;7620510;23;20336;-67
2022/08/21 12:31:26;;;;;;;0.80;0.80;;;;;;;-144.22;100.00;60274.75;7620727;23;20217;-63
2022/08/21 12:34:38;;;;;;;1.00;0.80;;;;;;;-144.22;100.00;60274.75;7613225;23;20216;-64
2022/08/21 12:37:52;;;;;;;1.40;1.30;;;;;;;-144.22;100.00;60274.75;7612931;23;20216;-64
2022/08/21 12:41:17;;;;;;;2.60;1.40;;;;;;;-144.22;100.00;60274.75;7613247;23;20673;-64
2022/08/21 12:44:31;;;;;;;1.17;1.03;;;;;;;-144.22;100.00;60274.75;7613168;23;20213;-64
2022/08/21 12:47:59;;;;;;;2.80;1.10;;;;;;;-144.22;100.00;60274.75;7615802;23;20212;-64
2022/08/21 12:51:09;;;;;;;1.40;1.30;;;;;;;-144.22;100.00;60274.75;7612205;23;20251;-64
2022/08/21 12:54:31;;;;;;;1.53;1.13;;;;;;;-144.22;100.00;60274.75;7611465;23;20181;-64
2022/08/21 12:57:36;;;;;;;4.93;1.20;;;;;;;-144.22;100.00;60274.75;7612251;23;20232;-65
2022/08/21 13:00:55;;;;;;;1.47;1.33;;;;;;;-144.22;100.00;60274.75;7613435;23;20224;-65
2022/08/21 13:04:01;;;;;;;1.37;1.27;;;;;;;-144.22;100.00;60274.75;7615377;23;20747;-64
2022/08/21 13:07:12;;;;;;;1.37;1.10;;;;;;;-144.22;100.00;60274.75;7588269;23;20218;-64
2022/08/21 13:10:20;;;;;;;1.10;1.10;;;;;;;-144.22;100.00;60274.75;7612337;23;20669;-65
2022/08/21 13:13:26;;;;;;;1.63;1.47;;;;;;;-144.22;100.00;60274.75;7613603;23;20213;-64
2022/08/21 13:16:31;;;;;;;1.43;1.30;;;;;;;-144.22;100.00;60274.75;7613601;23;20226;-66
2022/08/21 13:19:36;;;;;;;1.50;1.40;;;;;;;-144.22;100.00;60274.75;7613356;23;20596;-64
2022/08/21 13:22:43;;;;;;;1.57;1.23;;;;;;;-144.22;100.00;60274.75;7612072;23;20684;-64
2022/08/21 13:25:45;;;;;;;1.53;1.43;;;;;;;-144.22;100.00;60274.75;7614293;23;20212;-63
2022/08/21 13:28:49;;;;;;;1.50;1.40;;;;;;;-144.22;100.00;60274.75;7613333;23;20212;-62
2022/08/21 13:32:06;;;;;;;2.00;1.37;;;;;;;-144.22;100.00;60274.75;7613888;23;20212;-64
2022/08/21 13:35:19;;;;;;;1.40;1.30;;;;;;;-144.22;100.00;60274.75;7613167;23;20295;-63
2022/08/21 13:38:25;;;;;;;1.20;1.10;;;;;;;-144.22;100.00;60274.75;7613509;23;20670;-63
2022/08/21 13:41:33;;;;;;;2.30;1.50;;;;;;;-144.22;100.00;60274.75;7611975;23;20685;-63
2022/08/21 13:44:41;;;;;;;2.17;1.40;;;;;;;-144.22;100.00;60274.75;7614112;23;20219;-63
2022/08/21 13:47:46;;;;;;;2.20;1.53;;;;;;;-144.22;100.00;60274.75;7612228;23;20264;-63
2022/08/21 13:50:49;;;;;;;1.93;1.60;;;;;;;-144.22;100.00;60274.75;7612472;23;20563;-64
2022/08/21 13:53:53;;;;;;;1.90;1.80;;;;;;;-144.22;100.00;60274.75;7614328;23;20216;-64
2022/08/21 13:56:55;;;;;;;2.03;1.87;;;;;;;-144.22;100.00;60274.75;7614619;23;20680;-64
2022/08/21 14:00:34;;;;;;;1.83;1.73;;;;;;;-144.22;100.00;60274.75;7613012;23;20684;-63
2022/08/21 15:03:05;;;;;;;4.73;2.67;;;;;;;-144.22;100.00;60274.75;5410977;23;20217;-64
2022/08/21 15:06:08;;;;;;;3.13;2.73;;;;;;;-144.22;100.00;60274.75;7589733;23;20231;-64
2022/08/21 15:09:10;;;;;;;2.60;2.40;;;;;;;-144.22;100.00;60274.75;7611906;23;20181;-65